Seguin, TX

3:05 PM CDT on September 04, 2015 (GMT -0500)
College Heights (South) | | Change Station
CLOSE
Current Station
Personal Weather Station
Location: Seguin, TX
Elevation: 551 ft
Nearby Weather Stations

Elev 551 ft 29.57 °N, 97.96 °W | Updated 3 minutes ago

Partly Cloudy
Partly Cloudy
95.4 °F
Feels Like 103 °F
N
2.2
Wind Variable Wind from NE

Today
High -- | Low -- °F
--% Chance of Precip.
Yesterday
High -- | Low -- °F
Precip. -- in
7:10 AM 7:50 PM
Waning Gibbous, 56% visible
Pressure 29.86 in
Visibility 10.0 miles
Clouds Mostly Cloudy 5000 ft
Heat Index 103 °F
Dew Point 71 °F
Humidity 46%
Rainfall 0.00 in
Snow Depth Not available.
UV 5 out of 12
Pollen 9.30 out of 12
Air Quality Not available.
Flu Activity Not available.
METAR KBAZ 041951Z 17008KT 10SM BKN050 36/20 A2989 RMK AO2 SLP111 T03610200
Pressure 29.86 in
Visibility 10.0 miles
Clouds Mostly Cloudy 5000 ft
Heat Index 103 °F
Dew Point 71 °F
Humidity 46%
Rainfall 0.00 in
Snow Depth Not available.
UV 5 out of 12
Pollen 9.30 out of 12
Air Quality Not available.
Flu Activity Not available.
METAR KBAZ 041951Z 17008KT 10SM BKN050 36/20 A2989 RMK AO2 SLP111 T03610200
Nowcast | as of 12:45 PM CDT on September 4, 2015

Through 3 PM...isolated to scattered showers will move toward the north. These showers will produce light to moderate rain. A few of these showers could develop into thunderstorms and produce infrequent lightning. Rainfall totals will up to half an inch.

×

10-Day Weather Forecast

×

Almanac

Astronomy

Sep. 04, 2015 Rise Set
Actual Time
Civil Twilight
Nautical Twilight
Astronomical Twilight
Moon
Length of Visible Light
Length of Day
Tomorrow will be .
, % of the Moon is Illuminated

Today's Extremes

State Highs State Lows

Community

WunderPhotos

Upload Photos

1,852,272 photos uploaded!

WunderBlogs® & News

Nearby

Air Quality

  Air Quality AQ Index Pollutant
Not available.

Snow Depth

Station Depth Elevation

Earthquake Activity

City Distance Mag. Time & Date
Minimum magnitude displayed is 2.5.

Coastal Water Temperatures

Place Temperature

Stations

Nearby Weather Stations

Station Location Temp. Windchill Dew Point Humidity Wind Precip. Elev Updated Type